sensor_id;sensor_type;location;lat;lon;timestamp;temperature;humidity
58983;DHT22;44771;49.982;8.560;2023-03-23T00:02:02;14.10;81.10
58983;DHT22;44771;49.982;8.560;2023-03-23T00:07:04;14.10;81.60
58983;DHT22;44771;49.982;8.560;2023-03-23T00:12:05;14.00;82.20
58983;DHT22;44771;49.982;8.560;2023-03-23T00:17:20;13.90;82.80
58983;DHT22;44771;49.982;8.560;2023-03-23T00:22:44;13.90;83.40
58983;DHT22;44771;49.982;8.560;2023-03-23T00:27:59;13.90;84.00
58983;DHT22;44771;49.982;8.560;2023-03-23T00:33:01;13.80;84.50
58983;DHT22;44771;49.982;8.560;2023-03-23T00:38:03;13.80;85.30
58983;DHT22;44771;49.982;8.560;2023-03-23T00:43:04;13.60;85.80
58983;DHT22;44771;49.982;8.560;2023-03-23T00:48:05;13.60;86.90
58983;DHT22;44771;49.982;8.560;2023-03-23T00:53:07;13.60;86.80
58983;DHT22;44771;49.982;8.560;2023-03-23T00:58:08;13.80;85.20
58983;DHT22;44771;49.982;8.560;2023-03-23T01:03:09;13.80;85.30
58983;DHT22;44771;49.982;8.560;2023-03-23T01:08:12;13.90;84.20
58983;DHT22;44771;49.982;8.560;2023-03-23T01:13:13;14.00;84.10
58983;DHT22;44771;49.982;8.560;2023-03-23T01:18:15;14.00;84.40
58983;DHT22;44771;49.982;8.560;2023-03-23T01:23:17;14.00;85.10
58983;DHT22;44771;49.982;8.560;2023-03-23T01:28:17;13.80;86.60
58983;DHT22;44771;49.982;8.560;2023-03-23T01:33:18;13.80;86.10
58983;DHT22;44771;49.982;8.560;2023-03-23T01:38:20;13.80;86.40
58983;DHT22;44771;49.982;8.560;2023-03-23T01:43:21;13.80;86.30
58983;DHT22;44771;49.982;8.560;2023-03-23T01:48:23;13.80;85.60
58983;DHT22;44771;49.982;8.560;2023-03-23T01:53:30;13.70;86.10
58983;DHT22;44771;49.982;8.560;2023-03-23T01:58:33;13.70;86.00
58983;DHT22;44771;49.982;8.560;2023-03-23T02:03:35;13.70;85.30
58983;DHT22;44771;49.982;8.560;2023-03-23T02:08:38;13.70;85.70
58983;DHT22;44771;49.982;8.560;2023-03-23T02:13:43;13.80;84.90
58983;DHT22;44771;49.982;8.560;2023-03-23T02:18:55;13.80;84.50
58983;DHT22;44771;49.982;8.560;2023-03-23T02:29:36;13.90;84.60
58983;DHT22;44771;49.982;8.560;2023-03-23T02:34:45;14.00;84.40
58983;DHT22;44771;49.982;8.560;2023-03-23T02:39:51;13.90;84.80
58983;DHT22;44771;49.982;8.560;2023-03-23T02:44:53;13.90;85.50
58983;DHT22;44771;49.982;8.560;2023-03-23T02:49:57;13.90;85.40
58983;DHT22;44771;49.982;8.560;2023-03-23T02:54:59;13.90;90.20
58983;DHT22;44771;49.982;8.560;2023-03-23T03:00:00;13.40;98.50
58983;DHT22;44771;49.982;8.560;2023-03-23T03:05:09;12.90;99.90
58983;DHT22;44771;49.982;8.560;2023-03-23T03:10:19;12.60;99.90
58983;DHT22;44771;49.982;8.560;2023-03-23T03:15:27;12.40;99.90
58983;DHT22;44771;49.982;8.560;2023-03-23T03:20:32;12.40;99.90
58983;DHT22;44771;49.982;8.560;2023-03-23T03:25:36;12.50;99.90
58983;DHT22;44771;49.982;8.560;2023-03-23T03:30:38;12.40;99.90
58983;DHT22;44771;49.982;8.560;2023-03-23T03:35:42;12.40;99.90
58983;DHT22;44771;49.982;8.560;2023-03-23T03:40:43;12.40;99.90
58983;DHT22;44771;49.982;8.560;2023-03-23T03:45:44;12.40;99.90
58983;DHT22;44771;49.982;8.560;2023-03-23T03:50:46;12.30;99.90
58983;DHT22;44771;49.982;8.560;2023-03-23T03:55:46;12.00;99.90
58983;DHT22;44771;49.982;8.560;2023-03-23T04:00:47;11.80;99.90
58983;DHT22;44771;49.982;8.560;2023-03-23T04:05:49;11.60;99.90
58983;DHT22;44771;49.982;8.560;2023-03-23T04:10:50;11.60;99.90
58983;DHT22;44771;49.982;8.560;2023-03-23T04:15:51;11.60;99.90
58983;DHT22;44771;49.982;8.560;2023-03-23T04:20:53;11.60;99.90
58983;DHT22;44771;49.982;8.560;2023-03-23T04:25:54;11.60;99.90
58983;DHT22;44771;49.982;8.560;2023-03-23T04:30:55;11.70;99.90
58983;DHT22;44771;49.982;8.560;2023-03-23T04:36:00;11.70;99.90
58983;DHT22;44771;49.982;8.560;2023-03-23T04:41:01;11.90;99.90
58983;DHT22;44771;49.982;8.560;2023-03-23T04:46:02;11.90;99.90
58983;DHT22;44771;49.982;8.560;2023-03-23T04:51:04;11.90;99.90
58983;DHT22;44771;49.982;8.560;2023-03-23T04:56:05;12.10;99.90
58983;DHT22;44771;49.982;8.560;2023-03-23T05:01:06;12.40;99.90
58983;DHT22;44771;49.982;8.560;2023-03-23T05:06:08;12.50;99.90
58983;DHT22;44771;49.982;8.560;2023-03-23T05:11:09;12.60;99.90
58983;DHT22;44771;49.982;8.560;2023-03-23T05:16:09;12.70;99.90
58983;DHT22;44771;49.982;8.560;2023-03-23T05:21:11;12.80;99.90
58983;DHT22;44771;49.982;8.560;2023-03-23T05:26:12;12.90;99.90
58983;DHT22;44771;49.982;8.560;2023-03-23T05:31:13;12.90;99.90
58983;DHT22;44771;49.982;8.560;2023-03-23T05:36:15;13.00;99.90
58983;DHT22;44771;49.982;8.560;2023-03-23T05:41:15;12.90;99.90
58983;DHT22;44771;49.982;8.560;2023-03-23T05:46:16;12.90;99.90
58983;DHT22;44771;49.982;8.560;2023-03-23T05:51:18;12.70;99.90
58983;DHT22;44771;49.982;8.560;2023-03-23T05:56:19;12.60;99.90
58983;DHT22;44771;49.982;8.560;2023-03-23T06:01:20;12.50;99.90
58983;DHT22;44771;49.982;8.560;2023-03-23T06:06:22;12.50;99.90
58983;DHT22;44771;49.982;8.560;2023-03-23T06:11:23;12.30;99.90
58983;DHT22;44771;49.982;8.560;2023-03-23T06:16:23;12.20;99.90
58983;DHT22;44771;49.982;8.560;2023-03-23T06:21:26;12.20;99.90
58983;DHT22;44771;49.982;8.560;2023-03-23T06:26:28;12.20;99.90
58983;DHT22;44771;49.982;8.560;2023-03-23T06:31:30;12.00;99.90
58983;DHT22;44771;49.982;8.560;2023-03-23T06:36:35;12.00;99.90
58983;DHT22;44771;49.982;8.560;2023-03-23T06:41:36;12.20;99.90
58983;DHT22;44771;49.982;8.560;2023-03-23T06:46:36;12.20;99.90
58983;DHT22;44771;49.982;8.560;2023-03-23T06:51:38;12.30;99.90
58983;DHT22;44771;49.982;8.560;2023-03-23T06:56:39;12.20;99.90
58983;DHT22;44771;49.982;8.560;2023-03-23T07:01:40;12.30;99.90
58983;DHT22;44771;49.982;8.560;2023-03-23T07:06:42;12.40;99.90
58983;DHT22;44771;49.982;8.560;2023-03-23T07:11:43;12.50;99.90
58983;DHT22;44771;49.982;8.560;2023-03-23T07:16:43;12.50;99.90
58983;DHT22;44771;49.982;8.560;2023-03-23T07:21:45;12.50;99.90
58983;DHT22;44771;49.982;8.560;2023-03-23T07:26:46;12.60;99.90
58983;DHT22;44771;49.982;8.560;2023-03-23T07:31:47;12.60;99.90
58983;DHT22;44771;49.982;8.560;2023-03-23T07:36:49;12.60;99.90
58983;DHT22;44771;49.982;8.560;2023-03-23T07:41:49;12.50;99.90
58983;DHT22;44771;49.982;8.560;2023-03-23T07:46:50;12.50;99.90
58983;DHT22;44771;49.982;8.560;2023-03-23T07:51:52;12.50;99.90
58983;DHT22;44771;49.982;8.560;2023-03-23T07:56:53;12.50;99.90
58983;DHT22;44771;49.982;8.560;2023-03-23T08:01:54;12.60;99.90
58983;DHT22;44771;49.982;8.560;2023-03-23T08:06:56;12.60;99.90
58983;DHT22;44771;49.982;8.560;2023-03-23T08:11:56;12.60;99.90
58983;DHT22;44771;49.982;8.560;2023-03-23T08:16:57;12.70;99.90
58983;DHT22;44771;49.982;8.560;2023-03-23T08:21:59;12.70;99.90
58983;DHT22;44771;49.982;8.560;2023-03-23T08:27:00;12.70;99.90
58983;DHT22;44771;49.982;8.560;2023-03-23T08:32:01;12.60;99.90
58983;DHT22;44771;49.982;8.560;2023-03-23T08:37:03;12.60;99.90
58983;DHT22;44771;49.982;8.560;2023-03-23T08:42:04;12.60;99.90
58983;DHT22;44771;49.982;8.560;2023-03-23T08:47:05;12.60;99.90
58983;DHT22;44771;49.982;8.560;2023-03-23T08:52:07;12.70;99.90
58983;DHT22;44771;49.982;8.560;2023-03-23T08:57:08;12.70;99.90
58983;DHT22;44771;49.982;8.560;2023-03-23T09:02:10;12.80;99.90
58983;DHT22;44771;49.982;8.560;2023-03-23T09:07:13;12.80;99.90
58983;DHT22;44771;49.982;8.560;2023-03-23T09:12:13;13.00;99.90
58983;DHT22;44771;49.982;8.560;2023-03-23T09:17:14;13.20;99.90
58983;DHT22;44771;49.982;8.560;2023-03-23T09:22:16;13.40;99.90
58983;DHT22;44771;49.982;8.560;2023-03-23T09:27:17;13.60;99.90
58983;DHT22;44771;49.982;8.560;2023-03-23T09:32:17;13.80;99.90
58983;DHT22;44771;49.982;8.560;2023-03-23T09:37:19;14.00;99.90
58983;DHT22;44771;49.982;8.560;2023-03-23T09:42:35;14.10;99.90
58983;DHT22;44771;49.982;8.560;2023-03-23T09:47:42;14.20;99.90
58983;DHT22;44771;49.982;8.560;2023-03-23T09:52:50;14.40;99.90
58983;DHT22;44771;49.982;8.560;2023-03-23T09:57:55;14.70;99.90
58983;DHT22;44771;49.982;8.560;2023-03-23T10:03:02;15.00;99.90
58983;DHT22;44771;49.982;8.560;2023-03-23T10:08:11;15.20;99.90
58983;DHT22;44771;49.982;8.560;2023-03-23T10:13:18;15.10;99.90
58983;DHT22;44771;49.982;8.560;2023-03-23T10:18:24;15.00;99.90
58983;DHT22;44771;49.982;8.560;2023-03-23T10:23:51;14.70;99.90
58983;DHT22;44771;49.982;8.560;2023-03-23T10:28:56;14.60;99.90
58983;DHT22;44771;49.982;8.560;2023-03-23T10:33:59;14.40;99.90
58983;DHT22;44771;49.982;8.560;2023-03-23T10:39:12;14.30;99.90
58983;DHT22;44771;49.982;8.560;2023-03-23T10:44:17;14.40;99.90
58983;DHT22;44771;49.982;8.560;2023-03-23T10:49:22;14.40;99.90
58983;DHT22;44771;49.982;8.560;2023-03-23T10:54:31;14.20;99.90
58983;DHT22;44771;49.982;8.560;2023-03-23T10:59:32;14.60;99.90
58983;DHT22;44771;49.982;8.560;2023-03-23T11:04:33;15.00;99.90
58983;DHT22;44771;49.982;8.560;2023-03-23T11:09:37;15.20;99.90
58983;DHT22;44771;49.982;8.560;2023-03-23T11:14:38;15.40;99.90
58983;DHT22;44771;49.982;8.560;2023-03-23T11:19:38;15.40;99.90
58983;DHT22;44771;49.982;8.560;2023-03-23T11:24:44;15.40;99.90
58983;DHT22;44771;49.982;8.560;2023-03-23T11:29:49;15.60;99.90
58983;DHT22;44771;49.982;8.560;2023-03-23T11:34:54;15.40;99.90
58983;DHT22;44771;49.982;8.560;2023-03-23T11:39:58;15.60;99.90
58983;DHT22;44771;49.982;8.560;2023-03-23T11:45:13;15.40;99.90
58983;DHT22;44771;49.982;8.560;2023-03-23T11:50:18;15.00;99.90
58983;DHT22;44771;49.982;8.560;2023-03-23T11:55:24;15.00;99.90
58983;DHT22;44771;49.982;8.560;2023-03-23T12:00:25;14.80;99.90
58983;DHT22;44771;49.982;8.560;2023-03-23T12:05:32;14.60;99.90
58983;DHT22;44771;49.982;8.560;2023-03-23T12:10:40;14.30;99.90
58983;DHT22;44771;49.982;8.560;2023-03-23T12:15:48;14.40;99.90
58983;DHT22;44771;49.982;8.560;2023-03-23T12:20:57;14.50;99.90
58983;DHT22;44771;49.982;8.560;2023-03-23T12:26:12;14.80;99.90
58983;DHT22;44771;49.982;8.560;2023-03-23T12:31:19;15.40;99.90
58983;DHT22;44771;49.982;8.560;2023-03-23T12:36:34;15.80;99.90
58983;DHT22;44771;49.982;8.560;2023-03-23T12:41:47;15.90;99.90
58983;DHT22;44771;49.982;8.560;2023-03-23T12:47:13;15.60;99.90
58983;DHT22;44771;49.982;8.560;2023-03-23T12:52:20;15.50;99.90
58983;DHT22;44771;49.982;8.560;2023-03-23T12:57:26;15.70;99.90
58983;DHT22;44771;49.982;8.560;2023-03-23T13:02:30;15.90;99.90
58983;DHT22;44771;49.982;8.560;2023-03-23T13:07:35;16.00;99.90
58983;DHT22;44771;49.982;8.560;2023-03-23T13:12:40;15.80;99.90
58983;DHT22;44771;49.982;8.560;2023-03-23T13:17:46;15.70;99.90
58983;DHT22;44771;49.982;8.560;2023-03-23T13:22:53;15.70;99.90
58983;DHT22;44771;49.982;8.560;2023-03-23T13:27:58;15.90;99.90
58983;DHT22;44771;49.982;8.560;2023-03-23T13:33:04;16.20;99.90
58983;DHT22;44771;49.982;8.560;2023-03-23T13:38:15;16.20;99.90
58983;DHT22;44771;49.982;8.560;2023-03-23T13:43:28;15.70;99.90
58983;DHT22;44771;49.982;8.560;2023-03-23T13:48:40;15.50;99.90
58983;DHT22;44771;49.982;8.560;2023-03-23T13:53:44;15.10;99.90
58983;DHT22;44771;49.982;8.560;2023-03-23T13:58:49;14.90;99.90
58983;DHT22;44771;49.982;8.560;2023-03-23T14:03:50;14.70;99.90
58983;DHT22;44771;49.982;8.560;2023-03-23T14:08:55;15.00;99.90
58983;DHT22;44771;49.982;8.560;2023-03-23T14:14:05;15.40;99.90
58983;DHT22;44771;49.982;8.560;2023-03-23T14:19:15;15.50;99.90
58983;DHT22;44771;49.982;8.560;2023-03-23T14:24:20;15.20;99.90
58983;DHT22;44771;49.982;8.560;2023-03-23T14:29:23;14.90;99.90
58983;DHT22;44771;49.982;8.560;2023-03-23T14:34:26;14.70;99.90
58983;DHT22;44771;49.982;8.560;2023-03-23T14:39:29;14.70;99.90
58983;DHT22;44771;49.982;8.560;2023-03-23T14:44:34;14.60;99.90
58983;DHT22;44771;49.982;8.560;2023-03-23T14:49:36;14.60;99.90
58983;DHT22;44771;49.982;8.560;2023-03-23T14:54:37;14.70;99.90
58983;DHT22;44771;49.982;8.560;2023-03-23T14:59:41;14.70;99.90
58983;DHT22;44771;49.982;8.560;2023-03-23T15:04:43;14.70;99.90
58983;DHT22;44771;49.982;8.560;2023-03-23T15:09:46;14.60;99.90
58983;DHT22;44771;49.982;8.560;2023-03-23T15:14:50;14.60;99.90
58983;DHT22;44771;49.982;8.560;2023-03-23T15:19:53;14.70;99.90
58983;DHT22;44771;49.982;8.560;2023-03-23T15:25:03;14.80;99.90
58983;DHT22;44771;49.982;8.560;2023-03-23T15:30:18;14.70;99.90
58983;DHT22;44771;49.982;8.560;2023-03-23T15:35:27;14.50;99.90
58983;DHT22;44771;49.982;8.560;2023-03-23T15:40:34;14.50;99.90
58983;DHT22;44771;49.982;8.560;2023-03-23T15:45:37;14.20;99.90
58983;DHT22;44771;49.982;8.560;2023-03-23T15:50:40;14.20;99.90
58983;DHT22;44771;49.982;8.560;2023-03-23T15:55:41;14.10;99.90
58983;DHT22;44771;49.982;8.560;2023-03-23T16:00:43;14.10;99.90
58983;DHT22;44771;49.982;8.560;2023-03-23T16:05:45;13.80;99.90
58983;DHT22;44771;49.982;8.560;2023-03-23T16:10:47;13.60;99.90
58983;DHT22;44771;49.982;8.560;2023-03-23T16:15:50;13.10;99.90
58983;DHT22;44771;49.982;8.560;2023-03-23T16:20:52;12.80;99.90
58983;DHT22;44771;49.982;8.560;2023-03-23T16:25:53;12.70;99.90
58983;DHT22;44771;49.982;8.560;2023-03-23T16:36:53;12.60;99.90
58983;DHT22;44771;49.982;8.560;2023-03-23T16:41:55;12.50;99.90
58983;DHT22;44771;49.982;8.560;2023-03-23T16:46:58;12.50;99.90
58983;DHT22;44771;49.982;8.560;2023-03-23T16:52:00;12.50;99.90
58983;DHT22;44771;49.982;8.560;2023-03-23T16:57:02;12.50;99.90
58983;DHT22;44771;49.982;8.560;2023-03-23T17:02:31;12.50;99.90
58983;DHT22;44771;49.982;8.560;2023-03-23T17:07:34;12.60;99.90
58983;DHT22;44771;49.982;8.560;2023-03-23T17:12:35;12.50;99.90
58983;DHT22;44771;49.982;8.560;2023-03-23T17:17:39;12.60;99.90
58983;DHT22;44771;49.982;8.560;2023-03-23T17:22:41;12.60;99.90
58983;DHT22;44771;49.982;8.560;2023-03-23T17:27:42;12.70;99.90
58983;DHT22;44771;49.982;8.560;2023-03-23T17:32:46;12.60;99.90
58983;DHT22;44771;49.982;8.560;2023-03-23T17:37:48;12.70;99.90
58983;DHT22;44771;49.982;8.560;2023-03-23T17:42:49;12.70;99.90
58983;DHT22;44771;49.982;8.560;2023-03-23T17:47:52;12.70;99.90
58983;DHT22;44771;49.982;8.560;2023-03-23T17:52:54;12.60;99.90
58983;DHT22;44771;49.982;8.560;2023-03-23T17:57:56;12.60;99.90
58983;DHT22;44771;49.982;8.560;2023-03-23T18:02:59;12.70;99.90
58983;DHT22;44771;49.982;8.560;2023-03-23T18:08:01;12.60;99.90
58983;DHT22;44771;49.982;8.560;2023-03-23T18:13:04;12.50;99.90
58983;DHT22;44771;49.982;8.560;2023-03-23T18:18:07;12.40;99.90
58983;DHT22;44771;49.982;8.560;2023-03-23T18:23:09;12.30;99.90
58983;DHT22;44771;49.982;8.560;2023-03-23T18:28:10;12.30;99.90
58983;DHT22;44771;49.982;8.560;2023-03-23T18:33:14;12.40;99.90
58983;DHT22;44771;49.982;8.560;2023-03-23T18:38:17;12.40;99.90
58983;DHT22;44771;49.982;8.560;2023-03-23T18:43:19;12.40;99.90
58983;DHT22;44771;49.982;8.560;2023-03-23T18:48:22;12.50;99.90
58983;DHT22;44771;49.982;8.560;2023-03-23T18:53:25;12.60;99.90
58983;DHT22;44771;49.982;8.560;2023-03-23T18:58:27;12.50;99.90
58983;DHT22;44771;49.982;8.560;2023-03-23T19:03:30;12.40;99.90
58983;DHT22;44771;49.982;8.560;2023-03-23T19:08:32;12.40;99.90
58983;DHT22;44771;49.982;8.560;2023-03-23T19:13:34;12.40;99.90
58983;DHT22;44771;49.982;8.560;2023-03-23T19:18:38;12.70;99.90
58983;DHT22;44771;49.982;8.560;2023-03-23T19:23:40;12.80;99.90
58983;DHT22;44771;49.982;8.560;2023-03-23T19:28:42;12.90;99.90
58983;DHT22;44771;49.982;8.560;2023-03-23T19:34:06;13.10;99.90
58983;DHT22;44771;49.982;8.560;2023-03-23T19:39:07;13.30;99.90
58983;DHT22;44771;49.982;8.560;2023-03-23T19:44:09;13.20;99.90
58983;DHT22;44771;49.982;8.560;2023-03-23T19:49:12;13.20;99.90
58983;DHT22;44771;49.982;8.560;2023-03-23T19:54:15;13.20;99.90
58983;DHT22;44771;49.982;8.560;2023-03-23T19:59:17;13.20;99.90
58983;DHT22;44771;49.982;8.560;2023-03-23T20:04:20;13.10;99.90
58983;DHT22;44771;49.982;8.560;2023-03-23T20:09:22;13.10;99.90
58983;DHT22;44771;49.982;8.560;2023-03-23T20:14:25;13.00;99.90
58983;DHT22;44771;49.982;8.560;2023-03-23T20:19:28;13.00;99.90
58983;DHT22;44771;49.982;8.560;2023-03-23T20:24:30;13.00;99.90
58983;DHT22;44771;49.982;8.560;2023-03-23T20:29:32;12.90;99.90
58983;DHT22;44771;49.982;8.560;2023-03-23T20:34:35;13.00;99.90
58983;DHT22;44771;49.982;8.560;2023-03-23T20:39:37;12.80;99.90
58983;DHT22;44771;49.982;8.560;2023-03-23T20:44:39;12.60;99.90
58983;DHT22;44771;49.982;8.560;2023-03-23T20:49:42;12.50;99.90
58983;DHT22;44771;49.982;8.560;2023-03-23T20:54:54;12.30;99.90
58983;DHT22;44771;49.982;8.560;2023-03-23T20:59:56;12.30;99.90
58983;DHT22;44771;49.982;8.560;2023-03-23T21:04:59;12.30;99.90
58983;DHT22;44771;49.982;8.560;2023-03-23T21:10:02;12.20;99.90
58983;DHT22;44771;49.982;8.560;2023-03-23T21:15:04;12.10;99.90
58983;DHT22;44771;49.982;8.560;2023-03-23T21:20:08;12.10;99.90
58983;DHT22;44771;49.982;8.560;2023-03-23T21:25:10;12.20;99.90
58983;DHT22;44771;49.982;8.560;2023-03-23T21:30:12;12.20;99.90
58983;DHT22;44771;49.982;8.560;2023-03-23T21:35:15;12.20;99.90
58983;DHT22;44771;49.982;8.560;2023-03-23T21:40:17;12.40;99.90
58983;DHT22;44771;49.982;8.560;2023-03-23T21:45:19;12.40;99.90
58983;DHT22;44771;49.982;8.560;2023-03-23T21:50:22;12.50;99.90
58983;DHT22;44771;49.982;8.560;2023-03-23T21:55:23;12.60;99.90
58983;DHT22;44771;49.982;8.560;2023-03-23T22:00:25;12.70;99.90
58983;DHT22;44771;49.982;8.560;2023-03-23T22:05:28;12.80;99.90
58983;DHT22;44771;49.982;8.560;2023-03-23T22:10:30;12.90;99.90
58983;DHT22;44771;49.982;8.560;2023-03-23T22:15:32;12.90;99.90
58983;DHT22;44771;49.982;8.560;2023-03-23T22:20:35;12.90;99.90
58983;DHT22;44771;49.982;8.560;2023-03-23T22:25:37;12.90;99.90
58983;DHT22;44771;49.982;8.560;2023-03-23T22:30:38;12.80;99.90
58983;DHT22;44771;49.982;8.560;2023-03-23T22:35:42;12.80;99.90
58983;DHT22;44771;49.982;8.560;2023-03-23T22:40:53;12.90;99.90
58983;DHT22;44771;49.982;8.560;2023-03-23T22:45:55;13.00;99.90
58983;DHT22;44771;49.982;8.560;2023-03-23T22:50:59;12.90;99.90
58983;DHT22;44771;49.982;8.560;2023-03-23T22:56:01;12.90;99.90
58983;DHT22;44771;49.982;8.560;2023-03-23T23:01:05;12.90;99.90
58983;DHT22;44771;49.982;8.560;2023-03-23T23:06:10;12.90;99.90
58983;DHT22;44771;49.982;8.560;2023-03-23T23:11:14;13.00;99.90
58983;DHT22;44771;49.982;8.560;2023-03-23T23:16:17;12.90;99.90
58983;DHT22;44771;49.982;8.560;2023-03-23T23:21:21;12.70;99.90
58983;DHT22;44771;49.982;8.560;2023-03-23T23:26:24;12.40;99.90
58983;DHT22;44771;49.982;8.560;2023-03-23T23:31:28;12.20;99.90
58983;DHT22;44771;49.982;8.560;2023-03-23T23:36:32;12.00;99.90
58983;DHT22;44771;49.982;8.560;2023-03-23T23:41:34;11.80;99.90
58983;DHT22;44771;49.982;8.560;2023-03-23T23:46:36;11.80;99.90
58983;DHT22;44771;49.982;8.560;2023-03-23T23:51:39;11.70;99.90
58983;DHT22;44771;49.982;8.560;2023-03-23T23:56:41;11.50;99.90
